Time;durP1;ratioP1;P1;durP2;ratioP2;P2;SDS_P1;SDS_P2;PMS_P1;PMS_P2;Temp;Humidity;BMP_temperature;BMP_pressure;BME280_temperature;BME280_humidity;BME280_pressure;Samples;Min_cycle;Max_cycle;Signal;HPM_P1;HPM_P2
2022/04/22 00:01:27;;;;;;;;;;;11.20;99.90;;;;;;5052135;28;19924;-71
2022/04/22 00:03:53;;;;;;;;;;;11.20;99.90;;;;;;5063769;28;19931;-71
2022/04/22 00:06:20;;;;;;;;;;;11.20;99.90;;;;;;5062319;28;20297;-71
2022/04/22 00:08:48;;;;;;;;;;;11.10;99.90;;;;;;5079773;28;19928;-69
2022/04/22 00:11:30;;;;;;;;;;;11.10;99.90;;;;;;5066890;28;20070;-69
2022/04/22 00:13:57;;;;;;;;;;;11.00;99.90;;;;;;5060246;28;20414;-69
2022/04/22 00:16:25;;;;;;;;;;;11.00;99.90;;;;;;5078700;28;20012;-71
2022/04/22 00:18:51;;;;;;;;;;;10.90;99.90;;;;;;5062083;28;19971;-70
2022/04/22 00:21:18;;;;;;;;;;;10.90;99.90;;;;;;5060155;28;19986;-70
2022/04/22 00:23:44;;;;;;;;;;;10.80;99.90;;;;;;5063574;28;19976;-71
2022/04/22 00:26:12;;;;;;;;;;;10.80;99.90;;;;;;5069196;28;19932;-71
2022/04/22 00:28:39;;;;;;;;;;;10.70;99.90;;;;;;5078280;28;19935;-68
2022/04/22 00:31:05;;;;;;;;;;;10.70;99.90;;;;;;5071270;28;20318;-69
2022/04/22 00:33:32;;;;;;;;;;;10.70;99.90;;;;;;5071295;28;19990;-70
2022/04/22 00:35:59;;;;;;;;;;;10.70;99.90;;;;;;5054202;28;19935;-71
2022/04/22 00:38:25;;;;;;;;;;;10.60;99.90;;;;;;5081672;28;19924;-69
2022/04/22 00:40:52;;;;;;;;;;;10.60;99.90;;;;;;5070631;28;19929;-69
2022/04/22 00:43:21;;;;;;;;;;;10.60;99.90;;;;;;5062252;28;19982;-69
2022/04/22 00:45:47;;;;;;;;;;;10.60;99.90;;;;;;5055312;28;20318;-69
2022/04/22 00:48:14;;;;;;;;;;;10.70;99.90;;;;;;5067592;28;19928;-70
2022/04/22 00:50:41;;;;;;;;;;;10.70;99.90;;;;;;5055205;28;19924;-69
2022/04/22 00:53:08;;;;;;;;;;;10.70;99.90;;;;;;5073710;28;19944;-69
2022/04/22 00:55:36;;;;;;;;;;;10.80;99.90;;;;;;5072463;28;20028;-69
2022/04/22 00:58:03;;;;;;;;;;;10.80;99.90;;;;;;5068085;28;20042;-69
2022/04/22 01:00:31;;;;;;;;;;;10.70;99.90;;;;;;5063200;28;19937;-69
2022/04/22 01:02:58;;;;;;;;;;;10.70;99.90;;;;;;5083998;28;20346;-69
2022/04/22 01:10:54;;;;;;;;;;;10.60;99.90;;;;;;5063118;28;20058;-71
2022/04/22 01:13:20;;;;;;;;;;;10.60;99.90;;;;;;5082128;28;20009;-71
2022/04/22 01:15:48;;;;;;;;;;;10.60;99.90;;;;;;5052255;28;20103;-70
2022/04/22 01:18:16;;;;;;;;;;;10.50;99.90;;;;;;5067533;28;20005;-71
2022/04/22 01:20:42;;;;;;;;;;;10.50;99.90;;;;;;5063210;28;19947;-71
2022/04/22 01:23:10;;;;;;;;;;;10.50;99.90;;;;;;5065427;28;19985;-71
2022/04/22 01:25:37;;;;;;;;;;;10.40;99.90;;;;;;5060636;28;20068;-71
2022/04/22 01:28:03;;;;;;;;;;;10.40;99.90;;;;;;5062609;28;19996;-71
2022/04/22 01:30:30;;;;;;;;;;;10.30;99.90;;;;;;5065292;28;20015;-70
2022/04/22 01:32:57;;;;;;;;;;;10.30;99.90;;;;;;5067455;28;19929;-71
2022/04/22 01:35:24;;;;;;;;;;;10.30;99.90;;;;;;5090718;28;19933;-71
2022/04/22 01:37:51;;;;;;;;;;;10.30;99.90;;;;;;5090778;28;19967;-70
2022/04/22 01:40:19;;;;;;;;;;;10.20;99.90;;;;;;5075862;28;19978;-70
2022/04/22 01:42:46;;;;;;;;;;;10.20;99.90;;;;;;5075402;28;19954;-70
2022/04/22 01:45:13;;;;;;;;;;;10.10;99.90;;;;;;5077405;28;19950;-71
2022/04/22 01:47:39;;;;;;;;;;;10.10;99.90;;;;;;5083181;28;20037;-71
2022/04/22 01:50:07;;;;;;;;;;;10.10;99.90;;;;;;5072766;28;19996;-71
2022/04/22 01:52:35;;;;;;;;;;;10.00;99.90;;;;;;5062956;28;19935;-71
2022/04/22 01:55:02;;;;;;;;;;;10.00;99.90;;;;;;5069286;28;20371;-70
2022/04/22 01:57:30;;;;;;;;;;;10.00;99.90;;;;;;5067457;28;20417;-70
2022/04/22 01:59:59;;;;;;;;;;;10.00;99.90;;;;;;5072356;28;19936;-69
2022/04/22 02:02:25;;;;;;;;;;;10.00;99.90;;;;;;5066578;28;19924;-69
2022/04/22 02:04:52;;;;;;;;;;;10.00;99.90;;;;;;5071722;28;20506;-70
2022/04/22 02:07:18;;;;;;;;;;;9.90;99.90;;;;;;5060177;28;20286;-72
2022/04/22 02:09:45;;;;;;;;;;;9.90;99.90;;;;;;5060291;28;19978;-69
2022/04/22 02:12:12;;;;;;;;;;;9.90;99.90;;;;;;5075877;28;19986;-72
2022/04/22 02:14:40;;;;;;;;;;;9.90;99.90;;;;;;5067852;28;20001;-69
2022/04/22 02:17:06;;;;;;;;;;;9.90;99.90;;;;;;5060514;28;19932;-69
2022/04/22 02:19:33;;;;;;;;;;;9.80;99.90;;;;;;5066924;28;20386;-70
2022/04/22 02:21:59;;;;;;;;;;;9.80;99.90;;;;;;5068718;28;19928;-71
2022/04/22 02:24:26;;;;;;;;;;;9.70;99.90;;;;;;5062212;28;20012;-71
2022/04/22 02:29:37;;;;;;;;;;;9.70;99.90;;;;;;5063386;28;19947;-71
2022/04/22 02:32:06;;;;;;;;;;;9.60;99.90;;;;;;5078887;28;20421;-71
2022/04/22 02:34:32;;;;;;;;;;;9.60;99.90;;;;;;5070556;28;20008;-71
2022/04/22 02:36:59;;;;;;;;;;;9.60;99.90;;;;;;5068325;28;19989;-71
2022/04/22 02:39:25;;;;;;;;;;;9.60;99.90;;;;;;5070144;28;19957;-70
2022/04/22 02:47:21;;;;;;;;;;;9.60;99.90;;;;;;5071560;28;19931;-71
2022/04/22 02:49:48;;;;;;;;;;;9.50;99.90;;;;;;5071288;28;20352;-70
2022/04/22 02:52:15;;;;;;;;;;;9.50;99.90;;;;;;5081517;28;19924;-71
2022/04/22 02:54:42;;;;;;;;;;;9.50;99.90;;;;;;5059582;28;19928;-70
2022/04/22 02:57:09;;;;;;;;;;;9.50;99.90;;;;;;5082631;28;19928;-70
2022/04/22 02:59:37;;;;;;;;;;;9.50;99.90;;;;;;5074140;28;19925;-71
2022/04/22 03:02:04;;;;;;;;;;;9.50;99.90;;;;;;5070328;28;19932;-71
2022/04/22 03:07:06;;;;;;;;;;;9.40;99.90;;;;;;5082681;28;19964;-69
2022/04/22 03:09:33;;;;;;;;;;;9.40;99.90;;;;;;5079218;28;19955;-68
2022/04/22 03:12:00;;;;;;;;;;;9.30;99.90;;;;;;5079864;28;19928;-70
2022/04/22 03:14:26;;;;;;;;;;;9.30;99.90;;;;;;5088709;28;19932;-70
2022/04/22 03:16:53;;;;;;;;;;;9.30;99.90;;;;;;5069358;28;19928;-70
2022/04/22 03:19:19;;;;;;;;;;;9.30;99.90;;;;;;5070414;28;20279;-68
2022/04/22 03:21:46;;;;;;;;;;;9.30;99.90;;;;;;5057854;28;19970;-69
2022/04/22 03:24:14;;;;;;;;;;;9.30;99.90;;;;;;5076622;28;20390;-69
2022/04/22 03:26:40;;;;;;;;;;;9.20;99.90;;;;;;5063926;28;19970;-68
2022/04/22 03:29:07;;;;;;;;;;;9.20;99.90;;;;;;5070063;28;19925;-69
2022/04/22 03:31:33;;;;;;;;;;;9.20;99.90;;;;;;5070582;28;19928;-69
2022/04/22 03:34:00;;;;;;;;;;;9.10;99.90;;;;;;5070608;28;20322;-69
2022/04/22 03:36:26;;;;;;;;;;;9.10;99.90;;;;;;5063925;28;20345;-70
2022/04/22 03:38:53;;;;;;;;;;;9.10;99.90;;;;;;5065672;28;19981;-69
2022/04/22 03:41:21;;;;;;;;;;;9.10;99.90;;;;;;5068659;28;19932;-68
2022/04/22 03:43:47;;;;;;;;;;;9.10;99.90;;;;;;5068362;28;19936;-68
2022/04/22 03:46:14;;;;;;;;;;;9.10;99.90;;;;;;5062731;28;19932;-68
2022/04/22 03:48:41;;;;;;;;;;;9.00;99.90;;;;;;5066104;28;20356;-71
2022/04/22 03:51:07;;;;;;;;;;;9.00;99.90;;;;;;5069690;28;19924;-70
2022/04/22 03:53:37;;;;;;;;;;;8.90;99.90;;;;;;5067665;28;19932;-71
2022/04/22 03:58:10;;;;;;;;;;;8.90;99.90;;;;;;5066907;28;19931;-71
2022/04/22 03:58:52;;;;;;;;;;;8.90;99.90;;;;;;5062211;28;20436;-71
2022/04/22 04:01:18;;;;;;;;;;;8.80;99.90;;;;;;5062006;28;19948;-71
2022/04/22 04:03:45;;;;;;;;;;;8.80;99.90;;;;;;5068116;28;19958;-71
2022/04/22 04:06:12;;;;;;;;;;;8.80;99.90;;;;;;5075674;28;19924;-71
2022/04/22 04:08:39;;;;;;;;;;;8.80;99.90;;;;;;5073263;28;19931;-70
2022/04/22 04:16:35;;;;;;;;;;;8.60;99.90;;;;;;5061478;28;19932;-71
2022/04/22 04:24:30;;;;;;;;;;;8.60;99.90;;;;;;5063771;28;19927;-72
2022/04/22 04:26:58;;;;;;;;;;;8.60;99.90;;;;;;5063268;28;19934;-71
2022/04/22 04:29:24;;;;;;;;;;;8.60;99.90;;;;;;5071409;28;19928;-70
2022/04/22 04:31:52;;;;;;;;;;;8.60;99.90;;;;;;5073601;28;20019;-71
2022/04/22 04:34:19;;;;;;;;;;;8.60;99.90;;;;;;5080665;28;20325;-71
2022/04/22 04:36:45;;;;;;;;;;;8.60;99.90;;;;;;5071138;28;19928;-71
2022/04/22 04:39:12;;;;;;;;;;;8.60;99.90;;;;;;5085235;28;19928;-71
2022/04/22 04:41:38;;;;;;;;;;;8.60;99.90;;;;;;5070248;28;19928;-70
2022/04/22 04:44:06;;;;;;;;;;;8.60;99.90;;;;;;5070564;28;20497;-70
2022/04/22 04:46:33;;;;;;;;;;;8.70;99.90;;;;;;5073719;28;20012;-70
2022/04/22 04:49:01;;;;;;;;;;;8.60;99.90;;;;;;5072574;28;19932;-70
2022/04/22 04:51:28;;;;;;;;;;;8.60;99.90;;;;;;5079708;28;19930;-71
2022/04/22 04:53:54;;;;;;;;;;;8.70;99.90;;;;;;5072805;28;19970;-70
2022/04/22 04:56:21;;;;;;;;;;;8.60;99.90;;;;;;5067987;28;20453;-70
2022/04/22 04:58:47;;;;;;;;;;;8.60;99.90;;;;;;5067934;28;19929;-70
2022/04/22 05:01:14;;;;;;;;;;;8.70;99.90;;;;;;5066552;28;19978;-70
2022/04/22 05:03:40;;;;;;;;;;;8.70;99.90;;;;;;5070040;28;19935;-70
2022/04/22 05:06:09;;;;;;;;;;;8.70;99.90;;;;;;5076048;28;20615;-71
2022/04/22 05:08:35;;;;;;;;;;;8.80;99.90;;;;;;5070563;28;19929;-69
2022/04/22 05:11:02;;;;;;;;;;;8.80;99.90;;;;;;5067956;28;19936;-71
2022/04/22 05:13:28;;;;;;;;;;;8.90;99.90;;;;;;5072193;28;20417;-71
2022/04/22 05:15:56;;;;;;;;;;;8.90;99.90;;;;;;5062158;28;19925;-70
2022/04/22 05:18:22;;;;;;;;;;;8.90;99.90;;;;;;5069829;28;19959;-70
2022/04/22 05:20:49;;;;;;;;;;;9.00;99.90;;;;;;5070136;28;19994;-71
2022/04/22 05:23:17;;;;;;;;;;;9.00;99.90;;;;;;5070784;28;19978;-70
2022/04/22 05:25:43;;;;;;;;;;;9.00;99.90;;;;;;5069474;28;19935;-72
2022/04/22 05:28:10;;;;;;;;;;;9.00;99.90;;;;;;5067588;28;19929;-71
2022/04/22 05:33:21;;;;;;;;;;;9.10;99.90;;;;;;5068078;28;20394;-71
2022/04/22 05:35:47;;;;;;;;;;;9.10;99.90;;;;;;5075280;28;20680;-71
2022/04/22 05:38:15;;;;;;;;;;;9.10;99.90;;;;;;5075331;28;19935;-71
2022/04/22 05:40:48;;;;;;;;;;;9.20;99.90;;;;;;5072734;28;19929;-71
2022/04/22 05:43:14;;;;;;;;;;;9.20;99.90;;;;;;5069745;28;19924;-70
2022/04/22 05:45:41;;;;;;;;;;;9.20;99.90;;;;;;5065858;28;20040;-71
2022/04/22 05:48:08;;;;;;;;;;;9.30;99.90;;;;;;5067548;28;19928;-70
2022/04/22 05:50:34;;;;;;;;;;;9.30;99.90;;;;;;5070761;28;19928;-70
2022/04/22 05:53:01;;;;;;;;;;;9.40;99.90;;;;;;5064904;28;20444;-71
2022/04/22 05:55:28;;;;;;;;;;;9.40;99.90;;;;;;5069638;28;19928;-71
2022/04/22 05:57:56;;;;;;;;;;;9.50;99.90;;;;;;5064943;28;19935;-70
2022/04/22 06:00:24;;;;;;;;;;;9.50;99.90;;;;;;5068859;28;19928;-71
2022/04/22 06:02:52;;;;;;;;;;;9.60;99.90;;;;;;5067332;28;20020;-72
2022/04/22 06:05:20;;;;;;;;;;;9.70;99.90;;;;;;5068431;28;19925;-71
2022/04/22 06:07:47;;;;;;;;;;;9.70;99.90;;;;;;5070519;28;20417;-72
2022/04/22 06:10:31;;;;;;;;;;;9.80;99.90;;;;;;5066340;28;20357;-71
2022/04/22 06:12:59;;;;;;;;;;;9.90;99.90;;;;;;5063789;28;19943;-70
2022/04/22 06:15:26;;;;;;;;;;;10.00;99.90;;;;;;5064267;28;19978;-71
2022/04/22 06:17:53;;;;;;;;;;;10.00;99.90;;;;;;5075398;28;19932;-71
2022/04/22 06:20:19;;;;;;;;;;;10.10;99.90;;;;;;5063815;28;19928;-70
2022/04/22 06:22:46;;;;;;;;;;;10.20;99.90;;;;;;5064082;28;19978;-70
2022/04/22 06:25:13;;;;;;;;;;;10.30;99.90;;;;;;5063270;28;19950;-71
2022/04/22 06:27:41;;;;;;;;;;;10.40;99.90;;;;;;5063337;28;20238;-69
2022/04/22 06:30:10;;;;;;;;;;;10.50;99.90;;;;;;5062784;28;20382;-69
2022/04/22 06:32:37;;;;;;;;;;;10.60;99.90;;;;;;5062442;28;19932;-70
2022/04/22 06:35:04;;;;;;;;;;;10.70;99.90;;;;;;5061698;28;19929;-66
2022/04/22 06:37:33;;;;;;;;;;;10.90;99.90;;;;;;5068652;28;19993;-67
2022/04/22 06:48:25;;;;;;;;;;;11.30;99.90;;;;;;5024060;28;19991;-69
2022/04/22 06:50:52;;;;;;;;;;;11.50;99.90;;;;;;5066411;28;19939;-69
2022/04/22 06:53:20;;;;;;;;;;;11.60;99.90;;;;;;5064733;28;19982;-69
2022/04/22 06:55:47;;;;;;;;;;;11.80;99.90;;;;;;5062269;28;19925;-69
2022/04/22 06:58:14;;;;;;;;;;;11.90;99.90;;;;;;5068084;28;19978;-68
2022/04/22 07:00:42;;;;;;;;;;;12.00;99.90;;;;;;5062505;28;19947;-69
2022/04/22 07:03:10;;;;;;;;;;;12.20;99.90;;;;;;5058968;28;19924;-70
2022/04/22 07:05:37;;;;;;;;;;;12.30;99.90;;;;;;5067386;28;19924;-69
2022/04/22 07:08:05;;;;;;;;;;;12.30;99.90;;;;;;5060542;28;19925;-69
2022/04/22 07:10:32;;;;;;;;;;;12.30;99.90;;;;;;5061492;28;20033;-70
2022/04/22 07:12:59;;;;;;;;;;;12.30;99.90;;;;;;5065610;28;19924;-69
2022/04/22 07:15:26;;;;;;;;;;;12.40;99.90;;;;;;5064710;28;19931;-70
2022/04/22 07:17:55;;;;;;;;;;;12.50;99.90;;;;;;5066498;28;20290;-70
2022/04/22 07:20:22;;;;;;;;;;;12.60;99.90;;;;;;5060625;28;19932;-69
2022/04/22 07:22:49;;;;;;;;;;;12.80;99.90;;;;;;5057514;28;20479;-70
2022/04/22 07:25:16;;;;;;;;;;;13.00;99.90;;;;;;5066629;28;20302;-70
2022/04/22 07:27:43;;;;;;;;;;;13.10;99.90;;;;;;5063205;28;19932;-70
2022/04/22 07:30:11;;;;;;;;;;;13.30;99.90;;;;;;5067313;28;19937;-70
2022/04/22 07:32:38;;;;;;;;;;;13.50;99.90;;;;;;5067276;28;20935;-69
2022/04/22 07:35:08;;;;;;;;;;;13.60;99.90;;;;;;5065867;28;19924;-69
2022/04/22 07:37:35;;;;;;;;;;;13.80;99.90;;;;;;5069187;28;19972;-69
2022/04/22 07:40:02;;;;;;;;;;;14.10;99.90;;;;;;5068780;28;19924;-70
2022/04/22 07:42:29;;;;;;;;;;;14.60;99.90;;;;;;5065325;28;19932;-70
2022/04/22 07:47:44;;;;;;;;;;;15.10;99.90;;;;;;5067419;28;19931;-69
2022/04/22 07:50:13;;;;;;;;;;;15.20;99.90;;;;;;5065943;28;19924;-68
2022/04/22 07:52:40;;;;;;;;;;;15.30;99.90;;;;;;5055498;28;20498;-70
2022/04/22 07:55:07;;;;;;;;;;;15.40;99.90;;;;;;5073041;28;19928;-71
2022/04/22 07:57:34;;;;;;;;;;;15.50;99.90;;;;;;5072228;28;19967;-70
2022/04/22 08:00:00;;;;;;;;;;;15.60;99.90;;;;;;5065559;28;19970;-68
2022/04/22 08:02:27;;;;;;;;;;;15.70;99.90;;;;;;5064399;28;20646;-68
2022/04/22 08:04:53;;;;;;;;;;;15.80;99.90;;;;;;5065442;28;19928;-68
2022/04/22 08:07:22;;;;;;;;;;;15.90;99.90;;;;;;5070479;28;20345;-70
2022/04/22 08:09:48;;;;;;;;;;;16.10;99.90;;;;;;5066957;28;20920;-68
2022/04/22 08:12:15;;;;;;;;;;;16.30;99.90;;;;;;5061870;28;19932;-71
2022/04/22 08:14:42;;;;;;;;;;;16.30;99.90;;;;;;5069765;28;19920;-68
2022/04/22 08:17:09;;;;;;;;;;;16.20;99.90;;;;;;5074974;28;19921;-68
2022/04/22 08:19:35;;;;;;;;;;;16.20;99.90;;;;;;5060149;28;19928;-68
2022/04/22 08:22:02;;;;;;;;;;;16.40;99.90;;;;;;5074265;28;19925;-68
2022/04/22 08:24:30;;;;;;;;;;;16.60;99.90;;;;;;5073297;28;19928;-68
2022/04/22 08:26:57;;;;;;;;;;;16.90;99.90;;;;;;5066241;28;19928;-68
2022/04/22 08:29:24;;;;;;;;;;;17.30;99.90;;;;;;5065262;28;19931;-68
2022/04/22 08:31:52;;;;;;;;;;;17.60;99.90;;;;;;5075426;28;20638;-68
2022/04/22 08:34:19;;;;;;;;;;;17.60;99.90;;;;;;5073927;28;20329;-68
2022/04/22 08:36:46;;;;;;;;;;;17.40;99.90;;;;;;5069528;28;19932;-68
2022/04/22 08:39:13;;;;;;;;;;;17.20;99.90;;;;;;5074384;28;19920;-69
2022/04/22 08:41:41;;;;;;;;;;;17.00;99.90;;;;;;5067493;28;19973;-69
2022/04/22 08:44:08;;;;;;;;;;;16.90;99.90;;;;;;5061059;28;19982;-68
2022/04/22 08:52:03;;;;;;;;;;;17.50;99.90;;;;;;5069351;28;20004;-68
2022/04/22 08:54:30;;;;;;;;;;;17.50;99.90;;;;;;5065258;28;19924;-68
2022/04/22 08:56:58;;;;;;;;;;;17.40;99.90;;;;;;5073543;28;20452;-69
2022/04/22 08:59:26;;;;;;;;;;;17.30;99.90;;;;;;5061305;28;19928;-68
2022/04/22 09:01:52;;;;;;;;;;;17.10;99.90;;;;;;5070616;28;19935;-69
2022/04/22 09:04:19;;;;;;;;;;;17.00;99.90;;;;;;5073956;28;19974;-69
2022/04/22 09:06:47;;;;;;;;;;;16.90;99.90;;;;;;5069396;28;19978;-69
2022/04/22 09:09:13;;;;;;;;;;;16.90;99.90;;;;;;5062376;28;19928;-68
2022/04/22 09:11:43;;;;;;;;;;;16.90;99.90;;;;;;5062455;28;19924;-69
2022/04/22 09:14:14;;;;;;;;;;;17.00;99.90;;;;;;5059398;28;19920;-68
2022/04/22 09:16:41;;;;;;;;;;;16.90;99.90;;;;;;5069393;28;19920;-68
2022/04/22 09:19:08;;;;;;;;;;;17.00;99.90;;;;;;5067325;28;19920;-72
2022/04/22 09:21:35;;;;;;;;;;;17.20;99.90;;;;;;5066452;28;19960;-70
2022/04/22 09:24:10;;;;;;;;;;;17.70;99.90;;;;;;5067219;28;20004;-71
2022/04/22 09:26:37;;;;;;;;;;;18.10;99.90;;;;;;5066976;28;19920;-71
2022/04/22 09:29:05;;;;;;;;;;;18.20;99.90;;;;;;5066595;28;19928;-71
2022/04/22 09:31:44;;;;;;;;;;;18.30;99.90;;;;;;5063610;28;19924;-70
2022/04/22 09:34:11;;;;;;;;;;;18.30;99.90;;;;;;5067248;28;19921;-70
2022/04/22 09:44:51;;;;;;;;;;;17.50;99.90;;;;;;5067565;28;19942;-72
2022/04/22 09:47:19;;;;;;;;;;;17.40;99.90;;;;;;5066356;28;19927;-70
2022/04/22 09:49:46;;;;;;;;;;;17.50;99.90;;;;;;5066362;28;19967;-71
2022/04/22 09:52:13;;;;;;;;;;;17.50;99.90;;;;;;5065765;28;20402;-70
2022/04/22 09:54:40;;;;;;;;;;;17.60;99.90;;;;;;5069057;28;19968;-70
2022/04/22 09:57:07;;;;;;;;;;;17.50;99.90;;;;;;5063685;28;19928;-70
2022/04/22 09:59:35;;;;;;;;;;;17.50;99.90;;;;;;5057116;28;19928;-69
2022/04/22 10:02:01;;;;;;;;;;;17.60;99.90;;;;;;5068475;28;19920;-70
2022/04/22 10:04:29;;;;;;;;;;;17.60;99.90;;;;;;5068972;28;19921;-71
2022/04/22 10:06:57;;;;;;;;;;;17.60;99.90;;;;;;5067268;28;20341;-70
2022/04/22 10:09:23;;;;;;;;;;;17.90;99.90;;;;;;5064480;28;19936;-69
2022/04/22 10:11:54;;;;;;;;;;;18.50;99.90;;;;;;5069468;28;19946;-69
2022/04/22 10:14:24;;;;;;;;;;;19.20;99.90;;;;;;5069699;28;20487;-70
2022/04/22 10:16:52;;;;;;;;;;;19.60;99.90;;;;;;5050612;28;21882;-69
2022/04/22 10:19:18;;;;;;;;;;;19.90;99.90;;;;;;5068834;28;19928;-69
2022/04/22 10:21:46;;;;;;;;;;;20.20;99.90;;;;;;5069648;28;20381;-70
2022/04/22 10:24:13;;;;;;;;;;;20.50;99.80;;;;;;5065213;28;19963;-69
2022/04/22 10:26:40;;;;;;;;;;;20.60;99.80;;;;;;5065858;28;19929;-69
2022/04/22 10:29:09;;;;;;;;;;;21.00;99.60;;;;;;5065527;28;19924;-70
2022/04/22 10:31:36;;;;;;;;;;;21.30;99.30;;;;;;5068007;28;19933;-69
2022/04/22 10:34:05;;;;;;;;;;;21.60;97.90;;;;;;5059900;28;19994;-70
2022/04/22 10:36:33;;;;;;;;;;;21.70;97.50;;;;;;5063273;28;20425;-70
2022/04/22 10:39:01;;;;;;;;;;;21.80;96.80;;;;;;5069432;28;19936;-69
2022/04/22 10:41:28;;;;;;;;;;;21.80;96.60;;;;;;5078134;28;20030;-68
2022/04/22 10:49:20;;;;;;;;;;;21.40;96.00;;;;;;5068020;28;19951;-65
2022/04/22 10:52:00;;;;;;;;;;;21.30;95.60;;;;;;5069111;28;20003;-65
2022/04/22 10:54:45;;;;;;;;;;;21.30;96.10;;;;;;5069245;28;20459;-64
2022/04/22 10:57:18;;;;;;;;;;;21.60;96.10;;;;;;5069032;28;19997;-65
2022/04/22 10:59:44;;;;;;;;;;;21.80;94.90;;;;;;5071748;28;19950;-66
2022/04/22 11:02:27;;;;;;;;;;;21.90;95.20;;;;;;5066100;28;19928;-65
2022/04/22 11:05:19;;;;;;;;;;;22.20;95.40;;;;;;5065177;28;19973;-66
2022/04/22 11:07:55;;;;;;;;;;;22.50;94.90;;;;;;5062116;28;20003;-66
2022/04/22 11:10:22;;;;;;;;;;;22.80;94.30;;;;;;5064101;28;19947;-66
2022/04/22 11:12:54;;;;;;;;;;;22.90;93.50;;;;;;5067941;28;20460;-66
2022/04/22 11:15:39;;;;;;;;;;;22.90;93.20;;;;;;5070027;28;19936;-65
2022/04/22 11:18:08;;;;;;;;;;;22.90;93.00;;;;;;5059711;28;19994;-66
2022/04/22 11:20:35;;;;;;;;;;;22.90;91.90;;;;;;5062360;28;20212;-66
2022/04/22 11:23:03;;;;;;;;;;;22.70;91.20;;;;;;5060088;28;19981;-66
2022/04/22 11:25:30;;;;;;;;;;;22.50;91.50;;;;;;5063301;28;20401;-65
2022/04/22 11:27:58;;;;;;;;;;;22.30;91.50;;;;;;5063025;28;20468;-65
2022/04/22 11:30:26;;;;;;;;;;;22.10;92.00;;;;;;5066218;28;19933;-63
2022/04/22 11:32:53;;;;;;;;;;;22.00;91.50;;;;;;5061264;28;19924;-63
2022/04/22 11:35:20;;;;;;;;;;;21.90;91.40;;;;;;5065110;28;19924;-65
2022/04/22 11:37:56;;;;;;;;;;;21.80;91.20;;;;;;5065116;28;19963;-65
2022/04/22 11:40:23;;;;;;;;;;;21.80;91.40;;;;;;5069040;28;19924;-65
2022/04/22 11:42:51;;;;;;;;;;;21.80;91.50;;;;;;5071109;28;20409;-65
2022/04/22 11:45:18;;;;;;;;;;;21.80;91.70;;;;;;5063683;28;19981;-64
2022/04/22 11:47:45;;;;;;;;;;;21.80;92.00;;;;;;5075870;28;19932;-65
2022/04/22 11:50:17;;;;;;;;;;;21.80;92.60;;;;;;5063305;28;20019;-75
2022/04/22 11:52:44;;;;;;;;;;;21.70;92.30;;;;;;5065899;28;19928;-74
2022/04/22 11:55:11;;;;;;;;;;;21.60;91.50;;;;;;5064991;28;19924;-73
2022/04/22 11:57:38;;;;;;;;;;;21.30;91.60;;;;;;5070938;28;19940;-73
2022/04/22 12:05:41;;;;;;;;;;;21.50;92.10;;;;;;5069730;28;20048;-74
2022/04/22 12:08:10;;;;;;;;;;;22.00;91.90;;;;;;5073228;28;20299;-74
2022/04/22 12:10:37;;;;;;;;;;;22.40;91.80;;;;;;5062941;28;19999;-75
2022/04/22 12:13:05;;;;;;;;;;;22.70;92.00;;;;;;5068563;28;19950;-74
2022/04/22 12:15:31;;;;;;;;;;;23.20;90.60;;;;;;5065161;28;20019;-76
2022/04/22 12:17:59;;;;;;;;;;;23.70;91.00;;;;;;5069222;28;19974;-73
2022/04/22 12:20:26;;;;;;;;;;;24.20;87.80;;;;;;5062620;28;20022;-76
2022/04/22 12:22:55;;;;;;;;;;;24.50;89.70;;;;;;5062133;28;19933;-75
2022/04/22 12:25:23;;;;;;;;;;;24.70;90.70;;;;;;5070478;28;19932;-73
2022/04/22 12:28:07;;;;;;;;;;;24.70;88.60;;;;;;5065784;28;19940;-74
2022/04/22 12:30:37;;;;;;;;;;;24.30;86.20;;;;;;5064545;28;19928;-72
2022/04/22 12:33:05;;;;;;;;;;;24.00;86.00;;;;;;5065808;28;19933;-72
2022/04/22 12:35:32;;;;;;;;;;;23.60;84.70;;;;;;5068886;28;20003;-70
2022/04/22 12:38:02;;;;;;;;;;;23.10;85.50;;;;;;5067306;28;19933;-71
2022/04/22 12:40:29;;;;;;;;;;;22.90;86.10;;;;;;5062791;28;20388;-70
2022/04/22 12:42:55;;;;;;;;;;;22.90;85.90;;;;;;5067280;28;19948;-71
2022/04/22 12:53:43;;;;;;;;;;;23.70;85.00;;;;;;5061149;28;19927;-74
2022/04/22 12:56:10;;;;;;;;;;;24.00;85.00;;;;;;5065944;28;19928;-74
2022/04/22 12:58:51;;;;;;;;;;;24.30;83.50;;;;;;5062363;28;19928;-72
2022/04/22 13:01:19;;;;;;;;;;;24.50;82.00;;;;;;5061464;28;19963;-72
2022/04/22 13:03:47;;;;;;;;;;;24.60;82.60;;;;;;5063882;28;19929;-71
2022/04/22 13:06:34;;;;;;;;;;;24.90;80.90;;;;;;5068732;28;19929;-72
2022/04/22 13:09:02;;;;;;;;;;;25.00;80.10;;;;;;5070963;28;19928;-72
2022/04/22 13:11:28;;;;;;;;;;;25.00;80.30;;;;;;5072817;28;19932;-72
2022/04/22 13:13:55;;;;;;;;;;;25.20;77.50;;;;;;5064333;28;20430;-71
2022/04/22 13:16:21;;;;;;;;;;;25.20;78.80;;;;;;5066581;28;19928;-71
2022/04/22 13:18:48;;;;;;;;;;;25.10;76.90;;;;;;5066655;28;19978;-72
2022/04/22 13:21:14;;;;;;;;;;;25.00;77.90;;;;;;5065121;28;20490;-71
2022/04/22 13:23:41;;;;;;;;;;;25.20;76.50;;;;;;5064071;28;19936;-71
2022/04/22 13:26:09;;;;;;;;;;;25.40;76.50;;;;;;5069986;28;19932;-71
2022/04/22 13:28:36;;;;;;;;;;;25.70;75.60;;;;;;5070821;28;20023;-72
2022/04/22 13:31:02;;;;;;;;;;;26.20;75.90;;;;;;5066928;28;19942;-72
2022/04/22 13:33:31;;;;;;;;;;;26.60;74.50;;;;;;5068794;28;19924;-72
2022/04/22 13:35:59;;;;;;;;;;;26.70;73.20;;;;;;5066307;28;20473;-70
2022/04/22 13:38:26;;;;;;;;;;;26.60;72.70;;;;;;5070097;28;20487;-70
2022/04/22 13:40:53;;;;;;;;;;;26.30;74.00;;;;;;5069606;28;19944;-69
2022/04/22 13:43:20;;;;;;;;;;;25.80;74.30;;;;;;5069168;28;19943;-72
2022/04/22 13:54:05;;;;;;;;;;;24.30;78.70;;;;;;5065944;28;20024;-63
2022/04/22 13:56:32;;;;;;;;;;;25.00;79.20;;;;;;5069978;28;19984;-63
2022/04/22 13:59:00;;;;;;;;;;;25.10;80.00;;;;;;5070155;28;20005;-62
2022/04/22 14:01:26;;;;;;;;;;;25.00;79.00;;;;;;5068408;28;20013;-62
2022/04/22 14:03:53;;;;;;;;;;;24.80;79.60;;;;;;5064553;28;20001;-66
2022/04/22 14:06:19;;;;;;;;;;;24.80;80.60;;;;;;5050031;28;19974;-62
2022/04/22 14:08:46;;;;;;;;;;;24.90;79.10;;;;;;5058956;28;19952;-63
2022/04/22 14:11:12;;;;;;;;;;;24.90;78.70;;;;;;5077407;28;20039;-61
2022/04/22 14:13:39;;;;;;;;;;;24.80;79.40;;;;;;5070400;28;20364;-61
2022/04/22 14:16:07;;;;;;;;;;;24.90;80.20;;;;;;5066829;28;20040;-61
2022/04/22 14:18:35;;;;;;;;;;;25.60;78.00;;;;;;5058912;28;19945;-61
2022/04/22 14:21:02;;;;;;;;;;;25.80;78.10;;;;;;5068019;28;20003;-62
2022/04/22 14:23:29;;;;;;;;;;;25.70;77.10;;;;;;5069577;28;19938;-62
2022/04/22 14:25:56;;;;;;;;;;;25.60;78.30;;;;;;5071040;28;20044;-62
2022/04/22 14:28:23;;;;;;;;;;;26.00;78.10;;;;;;5076612;28;19945;-62
2022/04/22 14:30:49;;;;;;;;;;;26.40;77.00;;;;;;5076745;28;19951;-62
2022/04/22 14:33:17;;;;;;;;;;;26.40;76.40;;;;;;5069124;28;20083;-62
2022/04/22 14:35:44;;;;;;;;;;;26.20;75.30;;;;;;5106831;22;20026;-71
2022/04/22 14:38:11;;;;;;;;;;;26.00;76.00;;;;;;5098828;28;20005;-69
2022/04/22 14:40:38;;;;;;;;;;;26.00;76.30;;;;;;5108599;27;19974;-69
2022/04/22 14:43:06;;;;;;;;;;;26.70;76.10;;;;;;5105970;28;19948;-69
2022/04/22 14:45:33;;;;;;;;;;;27.70;74.80;;;;;;5100767;28;20570;-69
2022/04/22 14:47:59;;;;;;;;;;;28.50;72.60;;;;;;5091349;28;20028;-68
2022/04/22 14:50:27;;;;;;;;;;;28.40;72.70;;;;;;5087954;28;19944;-70
2022/04/22 14:52:56;;;;;;;;;;;27.90;73.10;;;;;;5078642;28;19948;-70
2022/04/22 14:55:22;;;;;;;;;;;27.30;73.30;;;;;;5092173;28;20490;-70
2022/04/22 14:57:49;;;;;;;;;;;26.80;72.20;;;;;;5083217;28;20065;-69
2022/04/22 15:00:16;;;;;;;;;;;26.20;73.60;;;;;;5098436;28;19932;-65
2022/04/22 15:02:42;;;;;;;;;;;25.00;74.80;;;;;;5082385;28;19924;-65
2022/04/22 15:05:09;;;;;;;;;;;24.10;76.80;;;;;;5085839;28;19935;-65
2022/04/22 15:07:37;;;;;;;;;;;23.40;78.00;;;;;;5100949;28;19988;-69
2022/04/22 15:10:04;;;;;;;;;;;22.80;78.70;;;;;;5078914;28;19947;-64
2022/04/22 15:12:31;;;;;;;;;;;22.30;80.10;;;;;;5087398;28;19927;-64
2022/04/22 15:14:57;;;;;;;;;;;22.00;82.00;;;;;;5104471;28;19979;-64
2022/04/22 15:25:35;;;;;;;;;;;21.60;80.80;;;;;;5087261;28;19935;-75
2022/04/22 15:28:01;;;;;;;;;;;21.40;81.00;;;;;;5096106;28;19923;-69
2022/04/22 15:30:43;;;;;;;;;;;21.30;81.70;;;;;;5094083;28;20019;-69
2022/04/22 15:33:09;;;;;;;;;;;21.10;81.50;;;;;;5085387;28;19928;-69
2022/04/22 15:35:36;;;;;;;;;;;20.90;82.00;;;;;;5080430;28;19947;-69
2022/04/22 15:38:04;;;;;;;;;;;21.10;82.40;;;;;;5099967;28;20683;-70
2022/04/22 15:40:30;;;;;;;;;;;21.90;82.40;;;;;;5089138;28;19993;-69
2022/04/22 15:42:58;;;;;;;;;;;22.30;81.90;;;;;;5083686;28;19924;-70
2022/04/22 15:45:25;;;;;;;;;;;22.40;81.00;;;;;;5088395;28;20380;-69
2022/04/22 15:47:51;;;;;;;;;;;22.20;81.40;;;;;;5083088;28;19968;-69
2022/04/22 15:50:18;;;;;;;;;;;22.40;80.60;;;;;;5095625;28;20069;-70
2022/04/22 15:52:44;;;;;;;;;;;23.00;81.40;;;;;;5105586;28;19924;-69
2022/04/22 15:55:13;;;;;;;;;;;23.20;80.40;;;;;;5099480;28;19927;-70